createdAt,value
2022-08-03T00:02:18.272Z,58.62
2022-08-03T00:04:46.036Z,58.13
2022-08-03T00:07:13.649Z,58.03
2022-08-03T00:09:42.587Z,58.29
2022-08-03T00:12:10.268Z,57.78
2022-08-03T00:14:37.897Z,57.69
2022-08-03T00:17:05.590Z,57.57
2022-08-03T00:19:33.173Z,58.66
2022-08-03T00:22:00.795Z,58.03
2022-08-03T00:24:28.595Z,58.56
2022-08-03T00:26:57.494Z,58.53
2022-08-03T00:29:25.216Z,58.22
2022-08-03T00:31:59.539Z,58.55
2022-08-03T00:34:57.308Z,58.68
2022-08-03T00:37:16.307Z,58.97
2022-08-03T00:39:45.851Z,58.57
2022-08-03T00:42:15.637Z,58.73
2022-08-03T00:44:45.015Z,58.08
2022-08-03T00:47:13.132Z,58.59
2022-08-03T00:49:42.140Z,58.72
2022-08-03T00:52:11.174Z,59.10
2022-08-03T00:54:39.462Z,58.54
2022-08-03T00:57:07.575Z,58.84
2022-08-03T00:59:38.118Z,59.17
2022-08-03T01:02:05.724Z,59.35
2022-08-03T01:04:33.297Z,59.18
2022-08-03T01:07:10.645Z,59.76
2022-08-03T01:09:47.197Z,59.71
2022-08-03T01:12:23.317Z,59.44
2022-08-03T01:14:59.555Z,59.74
2022-08-03T01:17:35.204Z,59.30
2022-08-03T01:20:08.043Z,59.35
2022-08-03T01:23:04.303Z,59.71
2022-08-03T01:25:41.331Z,59.82
2022-08-03T01:28:26.994Z,60.08
2022-08-03T01:30:59.670Z,59.88
2022-08-03T01:33:36.165Z,60.21
2022-08-03T01:36:10.711Z,59.73
2022-08-03T01:38:44.325Z,60.44
2022-08-03T01:41:14.978Z,60.15
2022-08-03T01:44:28.231Z,60.15
2022-08-03T01:46:38.493Z,60.06
2022-08-03T01:49:09.471Z,60.02
2022-08-03T01:51:56.667Z,60.32
2022-08-03T01:54:27.366Z,59.76
2022-08-03T01:56:57.820Z,60.37
2022-08-03T01:59:27.472Z,60.09
2022-08-03T02:02:29.892Z,60.56
2022-08-03T02:04:48.465Z,60.37
2022-08-03T02:07:17.353Z,60.45
2022-08-03T02:09:47.744Z,59.86
2022-08-03T02:12:16.955Z,61.20
2022-08-03T02:14:47.051Z,60.62
2022-08-03T02:17:16.876Z,61.12
2022-08-03T02:19:45.607Z,60.70
2022-08-03T02:22:15.041Z,60.71
2022-08-03T02:24:42.820Z,60.77
2022-08-03T02:27:21.015Z,61.48
2022-08-03T02:29:52.196Z,60.65
2022-08-03T02:32:25.613Z,60.61
2022-08-03T02:34:56.909Z,60.82
2022-08-03T02:37:33.461Z,61.01
2022-08-03T02:40:04.498Z,61.04
2022-08-03T02:42:33.915Z,61.33
2022-08-03T02:45:06.539Z,61.64
2022-08-03T02:47:54.147Z,61.76
2022-08-03T02:50:24.083Z,61.28
2022-08-03T02:52:53.054Z,61.54
2022-08-03T02:55:22.308Z,61.48
2022-08-03T02:57:51.121Z,61.80
2022-08-03T03:00:27.879Z,61.66
2022-08-03T03:02:58.893Z,61.30
2022-08-03T03:05:55.713Z,61.27
2022-08-03T03:08:20.930Z,61.41
2022-08-03T03:10:55.738Z,60.96
2022-08-03T03:13:24.105Z,60.55
2022-08-03T03:15:53.674Z,60.96
2022-08-03T03:18:23.182Z,59.90
2022-08-03T03:20:52.738Z,59.19
2022-08-03T03:23:22.295Z,57.60
2022-08-03T03:25:50.922Z,57.33
2022-08-03T03:28:18.722Z,56.49
2022-08-03T03:30:52.744Z,55.90
2022-08-03T03:33:22.992Z,55.95
2022-08-03T03:35:51.737Z,55.79
2022-08-03T03:38:19.746Z,55.37
2022-08-03T03:40:47.567Z,55.33
2022-08-03T03:43:15.140Z,55.63
2022-08-03T03:45:43.087Z,55.84
2022-08-03T03:48:11.141Z,56.53
2022-08-03T03:50:41.283Z,57.70
2022-08-03T03:53:11.494Z,58.06
2022-08-03T03:55:57.928Z,58.67
2022-08-03T03:58:27.714Z,58.96
2022-08-03T04:00:55.407Z,59.63
2022-08-03T04:03:23.015Z,59.63
2022-08-03T04:06:09.944Z,59.59
2022-08-03T04:08:55.333Z,59.75
2022-08-03T04:11:30.061Z,60.64
2022-08-03T04:14:04.546Z,59.86
2022-08-03T04:16:36.025Z,59.71
2022-08-03T04:19:08.738Z,58.97
2022-08-03T04:21:41.496Z,58.19
2022-08-03T04:24:11.833Z,57.51
2022-08-03T04:26:42.554Z,57.12
2022-08-03T04:29:12.752Z,56.80
2022-08-03T04:31:42.942Z,56.15
2022-08-03T04:34:10.930Z,55.70
2022-08-03T04:36:48.709Z,55.98
2022-08-03T04:39:21.006Z,56.83
2022-08-03T04:42:08.199Z,56.49
2022-08-03T04:44:38.925Z,57.27
2022-08-03T04:47:06.904Z,56.88
2022-08-03T04:49:37.142Z,57.05
2022-08-03T04:52:08.254Z,56.97
2022-08-03T04:54:40.774Z,57.36
2022-08-03T04:57:08.381Z,57.49
2022-08-03T04:59:39.089Z,57.47
2022-08-03T05:02:08.474Z,57.64
2022-08-03T05:04:36.099Z,57.82
2022-08-03T05:07:11.643Z,56.14
2022-08-03T05:09:50.227Z,56.30
2022-08-03T05:12:20.171Z,56.51
2022-08-03T05:14:47.709Z,56.77
2022-08-03T05:17:15.881Z,57.65
2022-08-03T05:19:43.728Z,57.70
2022-08-03T05:22:11.336Z,57.41
2022-08-03T05:24:43.262Z,57.09
2022-08-03T05:27:12.616Z,55.58
2022-08-03T05:29:40.177Z,55.20
2022-08-03T05:32:08.437Z,55.19
2022-08-03T05:34:36.268Z,55.04
2022-08-03T05:37:03.942Z,54.72
2022-08-03T05:39:31.528Z,55.09
2022-08-03T05:44:28.391Z,54.94
2022-08-03T05:46:58.183Z,54.48
2022-08-03T05:49:25.877Z,54.62
2022-08-03T05:52:00.027Z,54.34
2022-08-03T05:54:56.678Z,54.10
2022-08-03T05:57:26.703Z,54.26
2022-08-03T05:59:57.759Z,54.02
2022-08-03T06:02:26.419Z,53.41
2022-08-03T06:04:54.143Z,53.47
2022-08-03T06:07:21.766Z,53.09
2022-08-03T06:10:37.319Z,53.31
2022-08-03T06:12:41.044Z,53.38
2022-08-03T06:15:11.570Z,53.40
2022-08-03T06:17:46.183Z,53.39
2022-08-03T06:20:13.839Z,53.43
2022-08-03T06:22:44.515Z,53.49
2022-08-03T06:25:19.343Z,53.59
2022-08-03T06:27:50.379Z,53.36
2022-08-03T06:30:21.349Z,53.25
2022-08-03T06:32:52.195Z,53.78
2022-08-03T06:35:20.226Z,53.44
2022-08-03T06:37:49.528Z,53.47
2022-08-03T06:40:21.731Z,54.09
2022-08-03T06:42:52.568Z,53.68
2022-08-03T06:45:20.300Z,53.26
2022-08-03T06:47:47.854Z,53.43
2022-08-03T06:50:17.530Z,52.94
2022-08-03T06:52:46.245Z,52.59
2022-08-03T06:55:13.850Z,52.43
2022-08-03T06:57:41.440Z,52.85
2022-08-03T07:00:12.723Z,52.58
2022-08-03T07:02:41.048Z,52.73
2022-08-03T07:05:09.803Z,52.50
2022-08-03T07:07:37.778Z,52.39
2022-08-03T07:10:07.445Z,51.96
2022-08-03T07:12:35.967Z,52.28
2022-08-03T07:15:05.088Z,52.05
2022-08-03T07:17:36.572Z,51.54
2022-08-03T07:20:06.784Z,50.96
2022-08-03T07:22:34.868Z,50.94
2022-08-03T07:25:02.541Z,51.13
2022-08-03T07:27:30.364Z,50.80
2022-08-03T07:29:58.759Z,50.40
2022-08-03T07:32:26.469Z,50.74
2022-08-03T07:35:00.299Z,50.31
2022-08-03T07:37:28.425Z,50.69
2022-08-03T07:39:56.015Z,50.41
2022-08-03T07:42:23.876Z,50.06
2022-08-03T07:44:51.480Z,49.64
2022-08-03T07:47:22.776Z,49.70
2022-08-03T07:49:50.624Z,49.51
2022-08-03T07:52:37.557Z,49.27
2022-08-03T07:55:06.290Z,49.46
2022-08-03T07:57:34.050Z,49.57
2022-08-03T08:00:02.719Z,49.47
2022-08-03T08:02:30.529Z,49.37
2022-08-03T08:05:02.175Z,48.52
2022-08-03T08:07:34.193Z,48.58
2022-08-03T08:10:01.744Z,48.80
2022-08-03T08:12:29.499Z,48.43
2022-08-03T08:14:57.124Z,48.28
2022-08-03T08:17:24.735Z,48.41
2022-08-03T08:19:53.350Z,48.28
2022-08-03T08:22:30.082Z,47.86
2022-08-03T08:25:01.091Z,47.86
2022-08-03T08:28:31.451Z,47.55
2022-08-03T08:30:19.335Z,47.98
2022-08-03T08:32:47.284Z,47.25
2022-08-03T08:35:15.370Z,46.03
2022-08-03T08:37:43.208Z,46.61
2022-08-03T08:40:22.032Z,46.01
2022-08-03T08:42:58.847Z,45.81
2022-08-03T08:45:27.218Z,46.30
2022-08-03T08:48:00.414Z,45.89
2022-08-03T08:50:30.566Z,45.75
2022-08-03T08:53:03.007Z,45.68
2022-08-03T08:55:59.190Z,45.69
2022-08-03T08:58:23.659Z,45.89
2022-08-03T09:00:52.273Z,44.86
2022-08-03T09:03:22.681Z,45.44
2022-08-03T09:06:00.392Z,44.91
2022-08-03T09:08:28.105Z,44.93
2022-08-03T09:10:57.067Z,44.08
2022-08-03T09:13:24.699Z,43.65
2022-08-03T09:16:10.698Z,43.71
2022-08-03T09:18:38.298Z,43.83
2022-08-03T09:21:36.253Z,43.65
2022-08-03T09:24:10.259Z,43.86
2022-08-03T09:26:39.465Z,43.39
2022-08-03T09:29:14.977Z,42.48
2022-08-03T09:31:45.492Z,42.30
2022-08-03T09:34:14.845Z,41.94
2022-08-03T09:36:44.556Z,42.02
2022-08-03T09:39:13.953Z,41.51
2022-08-03T09:41:44.484Z,41.37
2022-08-03T09:44:24.939Z,41.93
2022-08-03T09:46:54.864Z,41.73
2022-08-03T09:49:23.355Z,40.64
2022-08-03T09:52:33.731Z,40.45
2022-08-03T09:54:42.458Z,40.57
2022-08-03T09:57:22.019Z,40.63
2022-08-03T09:59:49.962Z,39.66
2022-08-03T10:02:25.852Z,39.37
2022-08-03T10:04:55.022Z,38.67
2022-08-03T10:07:24.682Z,39.18
2022-08-03T10:09:57.242Z,38.42
2022-08-03T10:12:29.470Z,38.28
2022-08-03T10:14:57.201Z,38.38
2022-08-03T10:17:24.860Z,37.89
2022-08-03T10:19:52.588Z,38.22
2022-08-03T10:22:24.059Z,37.59
2022-08-03T10:24:56.637Z,37.09
2022-08-03T10:27:28.602Z,36.79
2022-08-03T10:29:57.677Z,36.95
2022-08-03T10:32:31.893Z,36.77
2022-08-03T10:35:04.202Z,37.32
2022-08-03T10:37:56.512Z,36.84
2022-08-03T10:43:21.481Z,36.33
2022-08-03T10:45:50.161Z,35.78
2022-08-03T10:48:19.631Z,35.81
2022-08-03T10:50:47.829Z,35.54
2022-08-03T10:53:16.681Z,35.57
2022-08-03T10:56:05.743Z,35.09
2022-08-03T10:58:57.493Z,35.50
2022-08-03T11:01:58.799Z,35.58
2022-08-03T11:04:29.155Z,35.32
2022-08-03T11:07:22.677Z,35.27
2022-08-03T11:09:52.014Z,35.40
2022-08-03T11:12:30.768Z,35.62
2022-08-03T11:15:03.185Z,35.31
2022-08-03T11:17:30.819Z,35.34
2022-08-03T11:19:58.776Z,35.07
2022-08-03T11:22:28.951Z,33.99
2022-08-03T11:25:00.776Z,34.88
2022-08-03T11:27:31.308Z,35.13
2022-08-03T11:30:02.960Z,34.63
2022-08-03T11:32:56.199Z,34.60
2022-08-03T11:35:25.114Z,34.82
2022-08-03T11:38:12.479Z,33.92
2022-08-03T11:40:43.645Z,34.55
2022-08-03T11:43:34.741Z,34.39
2022-08-03T11:46:06.259Z,34.20
2022-08-03T11:48:37.419Z,33.48
2022-08-03T11:51:06.225Z,34.24
2022-08-03T11:53:42.052Z,33.62
2022-08-03T11:56:12.884Z,33.25
2022-08-03T11:58:58.351Z,32.72
2022-08-03T12:01:37.541Z,32.46
2022-08-03T12:04:06.512Z,33.00
2022-08-03T12:06:54.401Z,32.48
2022-08-03T12:09:22.515Z,32.78
2022-08-03T12:11:50.901Z,32.55
2022-08-03T12:14:49.372Z,32.34
2022-08-03T12:17:18.698Z,32.73
2022-08-03T12:19:46.635Z,33.30
2022-08-03T12:22:15.956Z,32.36
2022-08-03T12:24:47.925Z,32.59
2022-08-03T12:27:25.204Z,32.32
2022-08-03T12:29:57.036Z,32.45
2022-08-03T12:32:29.160Z,32.40
2022-08-03T12:35:00.150Z,32.61
2022-08-03T12:37:28.590Z,32.17
2022-08-03T12:40:00.671Z,32.02
2022-08-03T12:42:35.050Z,31.40
2022-08-03T12:45:21.944Z,30.59
2022-08-03T12:47:58.495Z,30.68
2022-08-03T12:50:29.163Z,30.35
2022-08-03T12:52:57.973Z,31.15
2022-08-03T12:55:56.719Z,30.61
2022-08-03T12:58:33.546Z,31.32
2022-08-03T13:01:14.074Z,31.42
2022-08-03T13:03:49.602Z,31.17
2022-08-03T13:06:20.261Z,30.72
2022-08-03T13:08:49.024Z,30.32
2022-08-03T13:11:43.426Z,30.91
2022-08-03T13:14:16.706Z,29.54
2022-08-03T13:16:47.753Z,30.60
2022-08-03T13:19:16.904Z,30.06
2022-08-03T13:22:01.350Z,29.72
2022-08-03T13:24:32.742Z,30.75
2022-08-03T13:27:00.581Z,30.72
2022-08-03T13:29:48.356Z,31.08
2022-08-03T13:32:16.334Z,30.53
2022-08-03T13:34:45.501Z,30.51
2022-08-03T13:37:13.890Z,30.48
2022-08-03T13:39:57.739Z,30.09
2022-08-03T13:42:28.091Z,30.40
2022-08-03T13:44:55.933Z,29.42
2022-08-03T13:47:23.807Z,28.70
2022-08-03T13:49:54.237Z,29.07
2022-08-03T13:52:29.569Z,28.82
2022-08-03T13:54:57.353Z,29.73
2022-08-03T13:58:03.454Z,29.45
2022-08-03T14:00:26.345Z,28.72
2022-08-03T14:03:16.419Z,28.29
2022-08-03T14:05:47.059Z,28.10
2022-08-03T14:08:15.731Z,28.29
2022-08-03T14:10:45.516Z,27.58
2022-08-03T14:13:17.739Z,28.58
2022-08-03T14:15:50.218Z,27.53
2022-08-03T14:18:28.733Z,28.62
2022-08-03T14:21:07.439Z,28.08
2022-08-03T14:23:37.499Z,28.84
2022-08-03T14:26:06.996Z,28.27
2022-08-03T14:28:34.891Z,27.69
2022-08-03T14:31:03.388Z,27.80
2022-08-03T14:33:31.205Z,28.14
2022-08-03T14:36:01.277Z,28.47
2022-08-03T14:38:30.475Z,28.13
2022-08-03T14:40:58.295Z,28.53
2022-08-03T14:43:26.180Z,29.01
2022-08-03T14:46:04.555Z,29.38
2022-08-03T14:50:27.954Z,29.38
2022-08-03T14:51:20.210Z,29.19
2022-08-03T14:53:49.344Z,28.76
2022-08-03T14:56:19.151Z,29.41
2022-08-03T14:58:48.285Z,29.18
2022-08-03T15:02:04.540Z,28.64
2022-08-03T15:04:03.877Z,28.30
2022-08-03T15:06:31.639Z,28.49
2022-08-03T15:09:22.522Z,28.18
2022-08-03T15:11:48.609Z,29.40
2022-08-03T15:14:16.280Z,28.64
2022-08-03T15:16:44.114Z,28.54
2022-08-03T15:20:00.474Z,27.91
2022-08-03T15:22:01.089Z,26.81
2022-08-03T15:24:30.878Z,26.72
2022-08-03T15:26:58.657Z,26.98
2022-08-03T15:30:06.901Z,27.01
2022-08-03T15:32:14.113Z,27.58
2022-08-03T15:34:41.843Z,27.43
2022-08-03T15:37:20.815Z,27.60
2022-08-03T15:40:00.017Z,27.51
2022-08-03T15:42:29.053Z,27.40
2022-08-03T15:44:56.806Z,28.51
2022-08-03T15:47:24.465Z,28.72
2022-08-03T15:49:52.192Z,29.64
2022-08-03T15:52:20.195Z,27.41
2022-08-03T15:54:49.344Z,27.74
2022-08-03T15:57:17.209Z,27.98
2022-08-03T15:59:47.399Z,28.54
2022-08-03T16:02:15.123Z,28.86
2022-08-03T16:04:44.346Z,28.78
2022-08-03T16:07:12.740Z,28.92
2022-08-03T16:09:43.035Z,28.90
2022-08-03T16:12:17.380Z,28.86
2022-08-03T16:15:38.826Z,29.42
2022-08-03T16:17:49.241Z,30.01
2022-08-03T16:20:31.407Z,29.44
2022-08-03T16:23:10.937Z,29.56
2022-08-03T16:25:41.301Z,29.75
2022-08-03T16:28:15.027Z,30.46
2022-08-03T16:30:44.600Z,30.01
2022-08-03T16:33:16.960Z,31.18
2022-08-03T16:35:47.508Z,30.84
2022-08-03T16:38:31.518Z,31.16
2022-08-03T16:40:59.603Z,30.57
2022-08-03T16:43:28.723Z,31.04
2022-08-03T16:45:58.480Z,31.20
2022-08-03T16:48:26.143Z,31.29
2022-08-03T16:50:54.526Z,31.57
2022-08-03T16:53:33.732Z,31.61
2022-08-03T16:56:11.167Z,32.18
2022-08-03T16:58:44.548Z,30.92
2022-08-03T17:01:24.379Z,31.39
2022-08-03T17:04:01.595Z,31.49
2022-08-03T17:06:34.372Z,31.90
2022-08-03T17:09:03.487Z,31.95
2022-08-03T17:11:37.561Z,31.40
2022-08-03T17:14:09.624Z,31.20
2022-08-03T17:16:38.428Z,32.35
2022-08-03T17:19:08.129Z,30.99
2022-08-03T17:21:45.119Z,30.97
2022-08-03T17:24:26.332Z,30.50
2022-08-03T17:26:57.672Z,30.65
2022-08-03T17:29:29.741Z,31.01
2022-08-03T17:31:57.718Z,31.46
2022-08-03T17:34:26.507Z,31.46
2022-08-03T17:37:04.230Z,31.54
2022-08-03T17:42:31.368Z,30.49
2022-08-03T17:45:04.026Z,31.55
2022-08-03T17:47:42.278Z,32.19
2022-08-03T17:50:24.107Z,32.38
2022-08-03T17:53:23.791Z,32.85
2022-08-03T17:56:38.533Z,32.80
2022-08-03T17:59:08.678Z,33.11
2022-08-03T18:02:12.244Z,34.70
2022-08-03T18:05:02.114Z,37.64
2022-08-03T18:07:40.671Z,36.31
2022-08-03T18:10:15.109Z,35.95
2022-08-03T18:13:03.989Z,35.96
2022-08-03T18:15:53.144Z,37.55
2022-08-03T18:18:35.858Z,37.77
2022-08-03T18:21:17.268Z,37.26
2022-08-03T18:23:59.499Z,38.61
2022-08-03T18:26:27.393Z,39.28
2022-08-03T18:28:55.926Z,37.80
2022-08-03T18:31:59.435Z,39.91
2022-08-03T18:34:33.363Z,38.59
2022-08-03T18:37:07.798Z,38.76
2022-08-03T18:39:39.033Z,40.80
2022-08-03T18:42:19.479Z,39.69
2022-08-03T18:44:54.030Z,39.88
2022-08-03T18:47:50.800Z,40.26
2022-08-03T18:50:30.601Z,41.25
2022-08-03T18:53:16.584Z,41.04
2022-08-03T18:56:01.673Z,41.73
2022-08-03T18:58:36.282Z,42.98
2022-08-03T19:01:15.276Z,43.09
2022-08-03T19:04:10.023Z,43.78
2022-08-03T19:06:45.709Z,42.69
2022-08-03T19:09:22.963Z,43.79
2022-08-03T19:12:13.336Z,43.18
2022-08-03T19:14:53.453Z,42.56
2022-08-03T19:17:23.615Z,42.81
2022-08-03T19:19:58.657Z,42.70
2022-08-03T19:22:30.956Z,43.01
2022-08-03T19:25:01.289Z,43.82
2022-08-03T19:27:30.259Z,43.81
2022-08-03T19:30:02.890Z,45.51
2022-08-03T19:32:33.378Z,44.63
2022-08-03T19:35:02.395Z,45.84
2022-08-03T19:37:39.851Z,45.52
2022-08-03T19:40:10.665Z,44.40
2022-08-03T19:42:44.937Z,45.27
2022-08-03T19:45:17.617Z,45.37
2022-08-03T19:47:48.358Z,44.79
2022-08-03T19:50:16.769Z,44.81
2022-08-03T19:53:35.402Z,46.36
2022-08-03T19:56:14.054Z,46.74
2022-08-03T19:58:57.394Z,45.89
2022-08-03T20:01:25.761Z,46.79
2022-08-03T20:03:55.854Z,46.80
2022-08-03T20:06:24.862Z,46.79
2022-08-03T20:08:54.822Z,47.51
2022-08-03T20:11:28.621Z,46.01
2022-08-03T20:13:59.140Z,45.85
2022-08-03T20:16:27.023Z,46.55
2022-08-03T20:18:54.609Z,47.13
2022-08-03T20:21:25.392Z,46.63
2022-08-03T20:24:23.379Z,48.42
2022-08-03T20:27:01.261Z,48.85
2022-08-03T20:30:05.445Z,48.66
2022-08-03T20:32:24.399Z,47.64
2022-08-03T20:34:54.315Z,49.28
2022-08-03T20:37:23.177Z,49.06
2022-08-03T20:39:55.441Z,48.20
2022-08-03T20:42:23.284Z,48.42
2022-08-03T20:45:04.692Z,48.78
2022-08-03T20:47:36.009Z,48.62
2022-08-03T20:50:04.414Z,48.62
2022-08-03T20:52:37.074Z,49.12
2022-08-03T20:55:20.356Z,50.11
2022-08-03T20:58:07.764Z,49.50
2022-08-03T21:00:35.722Z,49.04
2022-08-03T21:03:03.841Z,49.66
2022-08-03T21:05:50.997Z,49.71
2022-08-03T21:08:21.993Z,49.80
2022-08-03T21:10:53.524Z,49.51
2022-08-03T21:13:25.644Z,50.38
2022-08-03T21:16:04.761Z,49.98
2022-08-03T21:18:45.484Z,50.01
2022-08-03T21:21:16.594Z,50.29
2022-08-03T21:23:48.719Z,50.66
2022-08-03T21:26:20.402Z,49.76
2022-08-03T21:28:51.925Z,50.35
2022-08-03T21:31:25.289Z,49.04
2022-08-03T21:33:55.403Z,50.57
2022-08-03T21:36:23.240Z,48.99
2022-08-03T21:38:56.148Z,49.83
2022-08-03T21:41:26.955Z,49.88
2022-08-03T21:43:54.686Z,49.63
2022-08-03T21:46:23.384Z,48.26
2022-08-03T21:48:56.145Z,49.45
2022-08-03T21:51:26.452Z,48.45
2022-08-03T21:54:03.151Z,49.15
2022-08-03T21:56:38.001Z,49.46
2022-08-03T21:59:08.079Z,48.48
2022-08-03T22:01:37.643Z,48.01
2022-08-03T22:04:07.277Z,48.34
2022-08-03T22:06:39.859Z,48.22
2022-08-03T22:09:07.656Z,49.24
2022-08-03T22:11:38.170Z,47.89
2022-08-03T22:14:06.401Z,49.25
2022-08-03T22:16:34.166Z,49.44
2022-08-03T22:19:01.691Z,48.02
2022-08-03T22:21:36.270Z,48.15
2022-08-03T22:24:06.450Z,48.36
2022-08-03T22:26:35.375Z,48.99
2022-08-03T22:29:07.985Z,49.45
2022-08-03T22:31:58.459Z,49.23
2022-08-03T22:34:26.658Z,48.79
2022-08-03T22:37:00.112Z,49.90
2022-08-03T22:39:29.400Z,48.92
2022-08-03T22:41:58.468Z,49.21
2022-08-03T22:44:28.048Z,48.88
2022-08-03T22:46:56.998Z,50.23
2022-08-03T22:49:25.389Z,49.55
2022-08-03T22:51:53.631Z,50.41
2022-08-03T22:54:21.301Z,50.56
2022-08-03T22:56:50.115Z,50.29
2022-08-03T22:59:41.075Z,50.90
2022-08-03T23:02:20.628Z,50.24
2022-08-03T23:04:51.918Z,50.96
2022-08-03T23:07:23.380Z,49.92
2022-08-03T23:09:51.973Z,50.51
2022-08-03T23:12:21.211Z,50.39
2022-08-03T23:14:54.125Z,50.07
2022-08-03T23:17:23.942Z,50.50
2022-08-03T23:19:53.762Z,51.01
2022-08-03T23:22:30.074Z,51.45
2022-08-03T23:25:01.470Z,50.68
2022-08-03T23:27:29.495Z,51.88
2022-08-03T23:29:59.346Z,51.79
2022-08-03T23:32:30.589Z,51.94
2022-08-03T23:35:18.510Z,51.27
2022-08-03T23:38:10.773Z,51.32
2022-08-03T23:40:34.487Z,51.89
2022-08-03T23:43:03.850Z,52.32
2022-08-03T23:45:35.626Z,52.01
2022-08-03T23:48:04.936Z,51.95
2022-08-03T23:50:41.848Z,52.28
2022-08-03T23:53:17.156Z,51.98
2022-08-03T23:55:58.194Z,51.50
2022-08-03T23:58:39.231Z,52.25
